createdAt,value
2022-08-28T00:01:42.128Z,101916.19
2022-08-28T00:06:43.857Z,101917.06
2022-08-28T00:11:47.079Z,101909.09
2022-08-28T00:16:50.045Z,101911.25
2022-08-28T00:21:52.627Z,101915.75
2022-08-28T00:27:13.036Z,101920.41
2022-08-28T00:32:15.253Z,101923.41
2022-08-28T00:37:16.951Z,101919.78
2022-08-28T00:42:18.714Z,101926.44
2022-08-28T00:47:20.403Z,101919.56
2022-08-28T00:52:26.919Z,101921.47
2022-08-28T00:57:41.037Z,101929.59
2022-08-28T01:02:44.099Z,101926.38
2022-08-28T01:07:46.854Z,101919.25
2022-08-28T01:12:54.947Z,101920.47
2022-08-28T01:18:08.063Z,101919.13
2022-08-28T01:23:20.154Z,101921.63
2022-08-28T01:28:21.923Z,101907.91
2022-08-28T01:33:28.260Z,101919.91
2022-08-28T01:38:30.057Z,101923.56
2022-08-28T01:43:32.351Z,101917.94
2022-08-28T01:48:37.898Z,101919.63
2022-08-28T01:53:40.991Z,101921.97
2022-08-28T01:58:43.339Z,101919.00
2022-08-28T02:03:45.222Z,101918.97
2022-08-28T02:08:49.822Z,101916.38
2022-08-28T02:13:53.213Z,101923.66
2022-08-28T02:18:58.166Z,101925.75
2022-08-28T02:23:59.945Z,101936.91
2022-08-28T02:29:01.740Z,101937.94
2022-08-28T02:34:03.686Z,101934.88
2022-08-28T02:39:05.357Z,101931.22
2022-08-28T02:44:07.170Z,101931.22
2022-08-28T02:49:09.127Z,101929.72
2022-08-28T02:54:10.860Z,101923.50
2022-08-28T02:59:13.518Z,101933.47
2022-08-28T03:04:15.251Z,101941.81
2022-08-28T03:09:16.954Z,101935.97
2022-08-28T03:14:18.617Z,101951.22
2022-08-28T03:19:20.680Z,101953.56
2022-08-28T03:24:22.363Z,101946.72
2022-08-28T03:29:24.103Z,101950.34
2022-08-28T03:34:25.925Z,101954.22
2022-08-28T03:39:27.813Z,101952.66
2022-08-28T03:44:29.491Z,101952.88
2022-08-28T03:49:31.243Z,101945.59
2022-08-28T03:54:33.595Z,101956.66
2022-08-28T03:59:35.808Z,101951.81
2022-08-28T04:04:37.467Z,101967.84
2022-08-28T04:09:39.202Z,101975.84
2022-08-28T04:14:59.060Z,101973.25
2022-08-28T04:20:00.781Z,101970.94
2022-08-28T04:25:02.481Z,101975.66
2022-08-28T04:30:05.291Z,101985.94
2022-08-28T04:35:10.944Z,101984.91
2022-08-28T04:40:14.555Z,101994.69
2022-08-28T04:45:16.395Z,101992.56
2022-08-28T04:50:18.176Z,101995.44
2022-08-28T04:55:20.942Z,102003.31
2022-08-28T05:00:45.233Z,101992.81
2022-08-28T05:05:50.640Z,101997.44
2022-08-28T05:10:52.988Z,102003.19
2022-08-28T05:15:55.475Z,102008.69
2022-08-28T05:20:57.242Z,102012.44
2022-08-28T05:25:58.974Z,102019.88
2022-08-28T05:31:09.621Z,102014.31
2022-08-28T05:36:11.909Z,102019.63
2022-08-28T05:41:20.650Z,102017.53
2022-08-28T05:46:29.443Z,102009.22
2022-08-28T05:51:31.611Z,102022.44
2022-08-28T05:56:36.342Z,102022.44
2022-08-28T06:01:40.706Z,102015.50
2022-08-28T06:06:42.920Z,102024.88
2022-08-28T06:11:46.192Z,102031.56
2022-08-28T06:16:52.404Z,102025.63
2022-08-28T06:21:57.316Z,102026.84
2022-08-28T06:26:59.710Z,102032.91
2022-08-28T06:32:04.543Z,102037.34
2022-08-28T06:37:06.406Z,102036.94
2022-08-28T06:42:08.309Z,102042.19
2022-08-28T06:47:11.186Z,102032.78
2022-08-28T06:52:12.907Z,102040.66
2022-08-28T06:57:14.639Z,102036.69
2022-08-28T07:02:16.649Z,102045.94
2022-08-28T07:07:31.303Z,102050.47
2022-08-28T07:12:34.087Z,102056.56
2022-08-28T07:17:37.059Z,102058.75
2022-08-28T07:22:41.019Z,102060.03
2022-08-28T07:27:43.726Z,102059.88
2022-08-28T07:32:49.216Z,102061.81
2022-08-28T07:37:50.970Z,102066.06
2022-08-28T07:43:11.190Z,102073.13
2022-08-28T07:48:13.277Z,102068.81
2022-08-28T07:53:15.465Z,102067.56
2022-08-28T07:58:18.568Z,102067.75
2022-08-28T08:03:20.863Z,102084.91
2022-08-28T08:08:22.808Z,102082.22
2022-08-28T08:13:24.519Z,102087.31
2022-08-28T08:18:26.147Z,102082.63
2022-08-28T08:23:28.247Z,102081.09
2022-08-28T08:28:30.273Z,102093.81
2022-08-28T08:33:33.191Z,102083.94
2022-08-28T08:38:36.199Z,102086.13
2022-08-28T08:43:50.682Z,102089.56
2022-08-28T08:48:53.812Z,102087.59
2022-08-28T08:54:06.373Z,102091.72
2022-08-28T08:59:14.645Z,102092.38
2022-08-28T09:04:36.518Z,102099.06
2022-08-28T09:09:44.522Z,102087.03
2022-08-28T09:15:08.782Z,102089.78
2022-08-28T09:20:14.960Z,102083.94
2022-08-28T09:25:44.791Z,102081.34
2022-08-28T09:30:55.244Z,102095.03
2022-08-28T09:35:57.120Z,102098.06
2022-08-28T09:41:30.758Z,102096.34
2022-08-28T09:46:32.786Z,102098.16
2022-08-28T09:51:38.694Z,102095.09
2022-08-28T09:56:42.914Z,102087.31
2022-08-28T10:01:51.634Z,102078.31
2022-08-28T10:07:27.224Z,102081.28
2022-08-28T10:13:05.967Z,102078.75
2022-08-28T10:18:31.068Z,102079.78
2022-08-28T10:24:07.246Z,102076.34
2022-08-28T10:29:33.360Z,102081.00
2022-08-28T10:34:47.111Z,102081.53
2022-08-28T10:40:02.475Z,102086.91
2022-08-28T10:45:11.963Z,102084.09
2022-08-28T10:50:26.791Z,102085.09
2022-08-28T10:55:38.940Z,102077.91
2022-08-28T11:00:43.583Z,102089.66
2022-08-28T11:05:53.891Z,102089.97
2022-08-28T11:10:58.739Z,102083.31
2022-08-28T11:16:10.189Z,102093.56
2022-08-28T11:21:25.246Z,102098.06
2022-08-28T11:26:38.626Z,102097.09
2022-08-28T11:31:41.035Z,102108.59
2022-08-28T11:36:43.398Z,102109.63
2022-08-28T11:42:09.736Z,102103.47
2022-08-28T11:47:43.394Z,102107.72
2022-08-28T11:52:53.138Z,102105.50
2022-08-28T11:58:25.729Z,102098.84
2022-08-28T12:03:36.384Z,102096.78
2022-08-28T12:08:53.036Z,102086.03
2022-08-28T12:14:01.672Z,102083.78
2022-08-28T12:19:04.755Z,102097.72
2022-08-28T12:24:28.743Z,102104.19
2022-08-28T12:29:49.260Z,102106.78
2022-08-28T12:34:53.835Z,102091.16
2022-08-28T12:39:59.829Z,102083.97
2022-08-28T12:45:05.885Z,102107.09
2022-08-28T12:50:42.918Z,102099.53
2022-08-28T12:55:51.820Z,102100.94
2022-08-28T13:00:58.097Z,102097.28
2022-08-28T13:06:09.406Z,102088.97
2022-08-28T13:11:11.423Z,102099.13
2022-08-28T13:16:35.377Z,102105.63
2022-08-28T13:22:00.515Z,102099.78
2022-08-28T13:27:14.370Z,102099.34
2022-08-28T13:32:17.789Z,102096.94
2022-08-28T13:37:43.914Z,102106.06
2022-08-28T13:42:46.943Z,102093.78
2022-08-28T13:47:48.712Z,102096.25
2022-08-28T13:52:51.683Z,102086.75
2022-08-28T13:57:54.837Z,102103.75
2022-08-28T14:03:15.506Z,102091.25
2022-08-28T14:08:17.197Z,102091.66
2022-08-28T14:13:19.900Z,102082.22
2022-08-28T14:18:21.579Z,102086.44
2022-08-28T14:23:23.575Z,102082.28
2022-08-28T14:28:25.283Z,102083.59
2022-08-28T14:33:27.035Z,102083.50
2022-08-28T14:38:29.483Z,102076.81
2022-08-28T14:43:31.637Z,102072.44
2022-08-28T14:48:34.708Z,102071.69
2022-08-28T14:53:37.339Z,102070.88
2022-08-28T14:58:42.957Z,102080.53
2022-08-28T15:03:44.734Z,102087.28
2022-08-28T15:08:46.823Z,102086.75
2022-08-28T15:13:50.146Z,102084.63
2022-08-28T15:18:53.106Z,102083.44
2022-08-28T15:23:57.880Z,102079.69
2022-08-28T15:29:03.444Z,102077.69
2022-08-28T15:34:07.301Z,102073.72
2022-08-28T15:39:34.054Z,102071.31
2022-08-28T15:44:36.158Z,102080.13
2022-08-28T15:49:44.698Z,102073.31
2022-08-28T15:54:50.766Z,102064.34
2022-08-28T15:59:52.447Z,102063.06
2022-08-28T16:04:54.767Z,102062.31
2022-08-28T16:09:56.663Z,102068.38
2022-08-28T16:14:58.570Z,102066.03
2022-08-28T16:20:00.260Z,102062.47
2022-08-28T16:25:02.031Z,102073.00
2022-08-28T16:30:05.560Z,102063.19
2022-08-28T16:35:08.008Z,102068.00
2022-08-28T16:40:11.109Z,102070.59
2022-08-28T16:45:12.827Z,102074.25
2022-08-28T16:50:15.648Z,102063.81
2022-08-28T16:55:17.507Z,102075.28
2022-08-28T17:00:20.092Z,102069.47
2022-08-28T17:05:23.092Z,102067.78
2022-08-28T17:10:25.518Z,102079.69
2022-08-28T17:15:27.483Z,102068.69
2022-08-28T17:20:48.131Z,102066.69
2022-08-28T17:25:49.923Z,102078.66
2022-08-28T17:30:51.602Z,102073.03
2022-08-28T17:35:55.690Z,102073.56
2022-08-28T17:40:57.387Z,102070.06
2022-08-28T17:45:59.410Z,102068.75
2022-08-28T17:51:02.122Z,102058.53
2022-08-28T17:56:06.058Z,102059.22
2022-08-28T18:01:07.790Z,102064.72
2022-08-28T18:06:09.490Z,102072.44
2022-08-28T18:11:13.471Z,102066.25
2022-08-28T18:16:15.471Z,102054.69
2022-08-28T18:21:17.383Z,102061.53
2022-08-28T18:26:19.206Z,102060.09
2022-08-28T18:31:20.976Z,102060.81
2022-08-28T18:36:23.286Z,102073.66
2022-08-28T18:41:35.771Z,102068.41
2022-08-28T18:46:48.175Z,102070.72
2022-08-28T18:51:50.004Z,102079.16
2022-08-28T18:56:51.776Z,102076.41
2022-08-28T19:01:54.179Z,102085.06
2022-08-28T19:06:56.040Z,102077.22
2022-08-28T19:11:57.738Z,102085.81
2022-08-28T19:17:00.332Z,102089.72
2022-08-28T19:22:02.159Z,102090.38
2022-08-28T19:27:04.475Z,102106.41
2022-08-28T19:32:07.616Z,102105.47
2022-08-28T19:37:09.303Z,102106.56
2022-08-28T19:42:10.903Z,102111.97
2022-08-28T19:47:13.740Z,102118.00
2022-08-28T19:52:16.129Z,102120.78
2022-08-28T19:57:20.308Z,102120.53
2022-08-28T20:02:30.504Z,102127.44
2022-08-28T20:07:32.536Z,102122.03
2022-08-28T20:12:34.663Z,102136.00
2022-08-28T20:17:43.900Z,102132.13
2022-08-28T20:22:53.959Z,102131.66
2022-08-28T20:28:01.375Z,102143.25
2022-08-28T20:33:03.702Z,102141.97
2022-08-28T20:38:10.999Z,102141.06
2022-08-28T20:43:12.731Z,102147.97
2022-08-28T20:48:14.517Z,102156.56
2022-08-28T20:53:36.949Z,102163.63
2022-08-28T20:58:38.771Z,102148.97
2022-08-28T21:03:42.766Z,102148.28
2022-08-28T21:08:50.038Z,102157.94
2022-08-28T21:13:52.075Z,102161.78
2022-08-28T21:19:15.244Z,102161.09
2022-08-28T21:24:18.703Z,102160.22
2022-08-28T21:29:22.631Z,102179.50
2022-08-28T21:34:25.239Z,102167.88
2022-08-28T21:39:27.258Z,102165.94
2022-08-28T21:44:29.228Z,102172.56
2022-08-28T21:49:31.190Z,102173.22
2022-08-28T21:54:33.174Z,102178.16
2022-08-28T21:59:37.994Z,102173.38
2022-08-28T22:04:39.963Z,102168.84
2022-08-28T22:09:41.744Z,102173.78
2022-08-28T22:14:43.805Z,102173.50
2022-08-28T22:19:46.747Z,102179.09
2022-08-28T22:24:48.746Z,102173.94
2022-08-28T22:29:50.662Z,102186.97
2022-08-28T22:34:54.216Z,102179.88
2022-08-28T22:39:56.000Z,102179.38
2022-08-28T22:44:57.866Z,102178.09
2022-08-28T22:50:00.213Z,102170.81
2022-08-28T22:55:02.044Z,102172.28
2022-08-28T23:00:08.301Z,102167.09
2022-08-28T23:05:10.090Z,102168.56
2022-08-28T23:10:13.417Z,102177.50
2022-08-28T23:15:19.284Z,102166.34
2022-08-28T23:20:22.592Z,102160.50
2022-08-28T23:25:24.879Z,102160.78
2022-08-28T23:30:28.567Z,102160.75
2022-08-28T23:35:30.555Z,102159.22
2022-08-28T23:40:34.021Z,102150.59
2022-08-28T23:45:40.500Z,102156.09
2022-08-28T23:50:42.501Z,102151.53
2022-08-28T23:55:44.384Z,102152.78
